Time;durP1;ratioP1;P1;durP2;ratioP2;P2;SDS_P1;SDS_P2;PMS_P1;PMS_P2;Temp;Humidity;BMP_temperature;BMP_pressure;BME280_temperature;BME280_humidity;BME280_pressure;Samples;Min_cycle;Max_cycle;Signal;HPM_P1;HPM_P2
2023/08/29 00:00:49;;;;;;;0.10;0.10;;;13.90;51.70;;;;;;5095276;28;20194;-57
2023/08/29 00:03:20;;;;;;;0.10;0.10;;;13.90;51.70;;;;;;5095518;28;20198;-58
2023/08/29 00:05:51;;;;;;;0.10;0.10;;;13.90;51.70;;;;;;5095359;28;20653;-58
2023/08/29 00:08:22;;;;;;;0.10;0.10;;;14.00;51.80;;;;;;5095019;28;20190;-58
2023/08/29 00:11:01;;;;;;;0.10;0.10;;;14.00;51.90;;;;;;5095225;28;20194;-58
2023/08/29 00:13:32;;;;;;;0.10;0.10;;;14.00;51.90;;;;;;5095271;28;20230;-59
2023/08/29 00:16:02;;;;;;;0.17;0.17;;;14.00;51.90;;;;;;5095174;28;20195;-58
2023/08/29 00:18:33;;;;;;;0.10;0.10;;;14.00;52.00;;;;;;5094494;28;20193;-58
2023/08/29 00:21:04;;;;;;;0.10;0.10;;;14.10;52.00;;;;;;5095121;28;20194;-58
2023/08/29 00:23:34;;;;;;;0.10;0.10;;;14.10;52.00;;;;;;5094654;28;20561;-58
2023/08/29 00:26:07;;;;;;;0.10;0.10;;;14.10;52.00;;;;;;5102320;28;20214;-58
2023/08/29 00:28:37;;;;;;;0.10;0.10;;;14.10;52.60;;;;;;5094924;28;20225;-60
2023/08/29 00:31:08;;;;;;;0.10;0.10;;;14.20;52.00;;;;;;5095041;28;20707;-59
2023/08/29 00:33:39;;;;;;;0.20;0.20;;;14.20;52.10;;;;;;5094721;28;20230;-58
2023/08/29 00:36:09;;;;;;;0.10;0.10;;;14.30;52.10;;;;;;5094908;28;20201;-58
2023/08/29 00:38:40;;;;;;;0.10;0.10;;;14.30;52.20;;;;;;5094125;28;20213;-60
2023/08/29 00:41:12;;;;;;;0.10;0.10;;;14.30;52.20;;;;;;5096899;28;20198;-59
2023/08/29 00:43:43;;;;;;;0.10;0.10;;;14.40;52.30;;;;;;5093986;28;20236;-59
2023/08/29 00:46:14;;;;;;;0.10;0.10;;;14.40;52.30;;;;;;5094472;28;20568;-58
2023/08/29 00:48:47;;;;;;;0.10;0.10;;;14.40;52.30;;;;;;5094323;28;20249;-59
2023/08/29 00:51:18;;;;;;;0.10;0.10;;;14.40;52.90;;;;;;5094509;28;20201;-60
2023/08/29 00:53:49;;;;;;;0.10;0.10;;;14.50;52.30;;;;;;5094200;28;20225;-58
2023/08/29 00:56:21;;;;;;;0.10;0.10;;;14.50;52.40;;;;;;5095427;28;20202;-59
2023/08/29 00:58:52;;;;;;;0.10;0.10;;;14.50;52.40;;;;;;5094402;28;20218;-59
2023/08/29 01:01:23;;;;;;;0.10;0.10;;;14.50;52.40;;;;;;5094676;28;20194;-59
2023/08/29 01:03:54;;;;;;;0.00;0.00;;;14.60;53.00;;;;;;5094222;28;20208;-59
2023/08/29 01:06:25;;;;;;;0.10;0.10;;;14.60;52.50;;;;;;5093545;28;20238;-60
2023/08/29 01:08:56;;;;;;;0.10;0.10;;;14.70;52.50;;;;;;5094133;28;20222;-58
2023/08/29 01:11:34;;;;;;;0.10;0.10;;;14.70;52.50;;;;;;5094360;28;20198;-59
2023/08/29 01:14:12;;;;;;;0.10;0.10;;;14.80;52.60;;;;;;5093731;28;20229;-59
2023/08/29 01:16:47;;;;;;;0.10;0.10;;;14.80;52.50;;;;;;5093968;28;20193;-59
2023/08/29 01:19:21;;;;;;;0.10;0.10;;;14.80;52.60;;;;;;5094141;28;20217;-59
2023/08/29 01:22:03;;;;;;;0.10;0.10;;;14.90;52.60;;;;;;5094038;28;20240;-60
2023/08/29 01:24:41;;;;;;;0.10;0.10;;;14.90;52.60;;;;;;5094061;28;20209;-61
2023/08/29 01:27:15;;;;;;;0.10;0.10;;;14.90;52.60;;;;;;5093766;28;20210;-59
2023/08/29 01:29:48;;;;;;;0.10;0.10;;;15.00;52.60;;;;;;5093952;28;20211;-59
2023/08/29 01:32:19;;;;;;;0.10;0.10;;;15.00;52.60;;;;;;5093852;28;20300;-60
2023/08/29 01:34:51;;;;;;;0.10;0.10;;;15.10;52.70;;;;;;5093532;28;20202;-61
2023/08/29 01:37:22;;;;;;;0.10;0.10;;;15.10;52.70;;;;;;5093090;28;20229;-60
2023/08/29 01:39:53;;;;;;;0.00;0.00;;;15.10;52.70;;;;;;5092861;28;20221;-61
2023/08/29 01:42:25;;;;;;;0.10;0.10;;;15.20;52.80;;;;;;5092887;28;20280;-61
2023/08/29 01:44:56;;;;;;;0.10;0.10;;;15.20;52.80;;;;;;5093443;28;20194;-61
2023/08/29 01:47:27;;;;;;;0.10;0.10;;;15.30;52.90;;;;;;5093404;28;20196;-61
2023/08/29 01:49:57;;;;;;;0.10;0.10;;;15.30;52.80;;;;;;5092641;28;20214;-61
2023/08/29 01:52:28;;;;;;;0.10;0.10;;;15.40;52.80;;;;;;5092743;28;20692;-60
2023/08/29 01:54:59;;;;;;;0.10;0.10;;;15.40;52.80;;;;;;5093478;28;20198;-61
2023/08/29 01:57:33;;;;;;;0.10;0.10;;;15.40;52.80;;;;;;5093279;28;20210;-61
2023/08/29 02:00:05;;;;;;;0.10;0.10;;;15.50;52.90;;;;;;5093250;28;20570;-60
2023/08/29 02:02:35;;;;;;;0.10;0.10;;;15.50;52.90;;;;;;5093309;28;20198;-60
2023/08/29 02:05:06;;;;;;;0.10;0.10;;;15.60;52.90;;;;;;5092820;28;20201;-60
2023/08/29 02:07:37;;;;;;;0.10;0.10;;;15.60;52.80;;;;;;5092242;28;20198;-61
2023/08/29 02:10:08;;;;;;;0.10;0.10;;;15.70;52.90;;;;;;5092703;28;20218;-60
2023/08/29 02:12:41;;;;;;;0.10;0.10;;;15.70;52.90;;;;;;5092773;28;21110;-61
2023/08/29 02:15:12;;;;;;;0.10;0.10;;;15.80;52.90;;;;;;5092573;28;20657;-60
2023/08/29 02:17:43;;;;;;;0.10;0.10;;;15.80;52.80;;;;;;5092590;28;20557;-60
2023/08/29 02:20:14;;;;;;;0.10;0.10;;;15.90;52.90;;;;;;5092620;28;20252;-60
2023/08/29 02:22:45;;;;;;;0.10;0.10;;;15.90;52.90;;;;;;5092510;28;20684;-62
2023/08/29 02:25:16;;;;;;;0.00;0.00;;;15.90;52.90;;;;;;5092338;28;20202;-61
2023/08/29 02:27:48;;;;;;;0.08;0.08;;;16.00;52.80;;;;;;5092459;28;20206;-60
2023/08/29 02:30:19;;;;;;;0.00;0.00;;;16.00;52.70;;;;;;5106526;28;20605;-59
2023/08/29 02:32:49;;;;;;;0.10;0.10;;;16.10;52.70;;;;;;5112695;28;20295;-62
2023/08/29 02:35:20;;;;;;;0.00;0.00;;;16.10;52.60;;;;;;5106577;28;20563;-62
2023/08/29 02:37:52;;;;;;;0.10;0.10;;;16.20;52.70;;;;;;5092596;28;20198;-63
2023/08/29 02:40:23;;;;;;;0.03;0.03;;;16.20;52.80;;;;;;5092567;28;20729;-61
2023/08/29 02:42:56;;;;;;;0.10;0.10;;;16.20;52.70;;;;;;5092393;28;20206;-61
2023/08/29 02:45:27;;;;;;;0.00;0.00;;;16.30;52.80;;;;;;5091993;28;20339;-61
2023/08/29 02:47:57;;;;;;;0.10;0.10;;;16.40;52.80;;;;;;5092337;28;20193;-63
2023/08/29 02:50:28;;;;;;;0.05;0.05;;;16.40;52.80;;;;;;5091834;28;20218;-63
2023/08/29 02:52:58;;;;;;;0.10;0.10;;;16.40;52.70;;;;;;5092158;28;20551;-61
2023/08/29 02:55:29;;;;;;;0.10;0.10;;;16.50;52.80;;;;;;5092261;28;20201;-61
2023/08/29 02:58:02;;;;;;;0.10;0.10;;;16.50;52.80;;;;;;5092906;28;20665;-62
2023/08/29 03:00:32;;;;;;;0.10;0.10;;;16.50;52.70;;;;;;5092395;28;20217;-60
2023/08/29 03:03:04;;;;;;;0.10;0.10;;;16.60;52.70;;;;;;5092212;28;20198;-61
2023/08/29 03:05:35;;;;;;;0.00;0.00;;;16.60;52.70;;;;;;5091934;28;20194;-61
2023/08/29 03:08:08;;;;;;;0.10;0.10;;;16.60;52.70;;;;;;5091854;28;20202;-62
2023/08/29 03:10:40;;;;;;;0.10;0.10;;;16.70;52.80;;;;;;5092386;28;20583;-61
2023/08/29 03:13:12;;;;;;;0.10;0.10;;;16.70;52.70;;;;;;5091764;28;20275;-60
2023/08/29 03:15:43;;;;;;;0.10;0.10;;;16.80;52.80;;;;;;5091990;28;20201;-60
2023/08/29 03:18:13;;;;;;;0.10;0.10;;;16.80;52.70;;;;;;5091520;28;20244;-63
2023/08/29 03:20:44;;;;;;;0.00;0.00;;;16.80;52.70;;;;;;5091966;28;20218;-60
2023/08/29 03:23:15;;;;;;;0.10;0.10;;;16.90;52.70;;;;;;5091819;28;20254;-61
2023/08/29 03:25:46;;;;;;;0.10;0.10;;;17.00;52.70;;;;;;5091903;28;20202;-60
2023/08/29 03:28:21;;;;;;;0.10;0.10;;;17.00;52.60;;;;;;5091501;28;20202;-63
2023/08/29 03:30:52;;;;;;;0.10;0.10;;;17.00;52.60;;;;;;5091447;28;20194;-60
2023/08/29 03:33:22;;;;;;;0.03;0.03;;;17.10;52.60;;;;;;5091397;28;20401;-61
2023/08/29 03:36:01;;;;;;;0.10;0.10;;;17.10;52.50;;;;;;5091632;28;20243;-63
2023/08/29 03:38:32;;;;;;;0.10;0.10;;;17.20;52.50;;;;;;5091513;28;20201;-62
2023/08/29 03:41:03;;;;;;;0.10;0.10;;;17.20;52.30;;;;;;5091772;28;20631;-61
2023/08/29 03:43:36;;;;;;;0.10;0.10;;;17.20;52.30;;;;;;5091562;28;20194;-60
2023/08/29 03:46:08;;;;;;;0.10;0.10;;;17.30;52.30;;;;;;5091671;28;20190;-60
2023/08/29 03:48:40;;;;;;;0.10;0.10;;;17.30;52.20;;;;;;5091137;28;20942;-62
2023/08/29 03:51:11;;;;;;;0.10;0.10;;;17.30;52.10;;;;;;5091305;28;20198;-63
2023/08/29 03:53:41;;;;;;;0.10;0.10;;;17.40;52.00;;;;;;5090935;28;20580;-60
2023/08/29 03:56:13;;;;;;;0.10;0.10;;;17.40;51.80;;;;;;5091298;28;20194;-61
2023/08/29 03:58:46;;;;;;;0.10;0.10;;;17.50;51.60;;;;;;5092016;28;20324;-60
2023/08/29 04:01:19;;;;;;;0.20;0.20;;;17.50;51.60;;;;;;5091593;28;20208;-60
2023/08/29 04:03:49;;;;;;;0.10;0.10;;;17.50;51.60;;;;;;5091162;28;20207;-62
2023/08/29 04:06:22;;;;;;;0.10;0.10;;;17.60;51.70;;;;;;5090666;28;20649;-60
2023/08/29 04:08:54;;;;;;;0.08;0.08;;;17.60;51.70;;;;;;5090614;28;20218;-60
2023/08/29 04:11:25;;;;;;;0.00;0.00;;;17.60;51.50;;;;;;5090370;28;20190;-61
2023/08/29 04:13:57;;;;;;;0.10;0.10;;;17.70;51.50;;;;;;5090986;28;20222;-60
2023/08/29 04:16:28;;;;;;;0.10;0.10;;;17.70;51.40;;;;;;5091085;28;20209;-61
2023/08/29 04:18:59;;;;;;;0.20;0.20;;;17.70;51.50;;;;;;5091124;28;20218;-60
2023/08/29 04:21:29;;;;;;;0.10;0.10;;;17.70;51.40;;;;;;5091135;28;20202;-62
2023/08/29 04:24:00;;;;;;;0.10;0.10;;;17.80;51.40;;;;;;5091195;28;20201;-61
2023/08/29 04:26:30;;;;;;;0.10;0.10;;;17.80;51.30;;;;;;5090978;28;20225;-62
2023/08/29 04:29:03;;;;;;;0.10;0.10;;;17.80;51.30;;;;;;5093529;28;20214;-60
2023/08/29 04:31:34;;;;;;;0.10;0.10;;;17.80;51.20;;;;;;5115335;28;20334;-60
2023/08/29 04:34:04;;;;;;;0.15;0.15;;;17.90;51.20;;;;;;5113393;28;20233;-61
2023/08/29 04:36:35;;;;;;;0.10;0.10;;;17.90;51.10;;;;;;5074851;28;20522;-60
2023/08/29 04:39:06;;;;;;;0.10;0.10;;;17.90;51.10;;;;;;5074243;28;20222;-61
2023/08/29 04:41:38;;;;;;;0.10;0.10;;;17.90;51.00;;;;;;5074670;28;20650;-62
2023/08/29 04:44:10;;;;;;;0.00;0.00;;;18.00;50.80;;;;;;5074741;28;20190;-61
2023/08/29 04:46:41;;;;;;;0.10;0.10;;;18.00;50.80;;;;;;5074456;28;20256;-62
2023/08/29 04:49:11;;;;;;;0.10;0.10;;;18.00;50.80;;;;;;5073951;28;20227;-60
2023/08/29 04:51:43;;;;;;;0.10;0.10;;;18.00;50.70;;;;;;5093841;28;20190;-62
2023/08/29 04:54:13;;;;;;;0.10;0.10;;;18.00;50.80;;;;;;5093946;28;20214;-62
2023/08/29 04:56:44;;;;;;;0.10;0.10;;;18.10;50.80;;;;;;5094307;28;20201;-61
2023/08/29 04:59:16;;;;;;;0.03;0.03;;;18.10;50.80;;;;;;5094549;28;20619;-61
2023/08/29 05:01:47;;;;;;;0.10;0.10;;;18.10;50.90;;;;;;5094305;28;20615;-60
2023/08/29 05:04:18;;;;;;;0.10;0.10;;;18.10;51.40;;;;;;5094083;28;20209;-61
2023/08/29 05:06:48;;;;;;;0.10;0.10;;;18.20;50.90;;;;;;5093929;28;20278;-61
2023/08/29 05:09:19;;;;;;;0.08;0.08;;;18.10;50.80;;;;;;5094038;28;20589;-62
2023/08/29 05:11:50;;;;;;;0.10;0.10;;;18.20;50.80;;;;;;5094228;28;20198;-61
2023/08/29 05:14:22;;;;;;;0.00;0.00;;;18.20;50.90;;;;;;5094161;28;20222;-59
2023/08/29 05:16:53;;;;;;;0.00;0.00;;;18.20;50.70;;;;;;5094041;28;20197;-58
2023/08/29 05:19:24;;;;;;;0.08;0.08;;;18.20;50.70;;;;;;5094017;28;20218;-61
2023/08/29 05:21:54;;;;;;;0.10;0.10;;;18.20;50.70;;;;;;5094332;28;20201;-60
2023/08/29 05:24:25;;;;;;;0.10;0.10;;;18.20;50.60;;;;;;5093653;28;20197;-60
2023/08/29 05:26:56;;;;;;;0.00;0.00;;;18.20;50.60;;;;;;5093872;28;20206;-60
2023/08/29 05:29:29;;;;;;;0.10;0.10;;;18.20;50.70;;;;;;5093956;28;20222;-60
2023/08/29 05:31:59;;;;;;;0.10;0.10;;;18.20;50.70;;;;;;5093909;28;20554;-58
2023/08/29 05:34:30;;;;;;;0.10;0.10;;;18.20;50.70;;;;;;5093453;28;20243;-58
2023/08/29 05:37:00;;;;;;;0.10;0.10;;;18.20;50.70;;;;;;5093336;28;20190;-57
2023/08/29 05:39:31;;;;;;;0.10;0.10;;;18.20;50.70;;;;;;5093128;28;20225;-58
2023/08/29 05:42:02;;;;;;;0.10;0.10;;;18.20;50.60;;;;;;5093342;28;20280;-58
2023/08/29 05:44:35;;;;;;;0.10;0.10;;;18.20;50.60;;;;;;5093272;28;20194;-57
2023/08/29 05:47:05;;;;;;;0.10;0.10;;;18.20;50.70;;;;;;5093063;28;20251;-58
2023/08/29 05:49:36;;;;;;;0.17;0.17;;;18.20;50.70;;;;;;5093246;28;20685;-58
2023/08/29 05:52:08;;;;;;;0.10;0.10;;;18.20;50.80;;;;;;5093126;28;20672;-59
2023/08/29 05:54:38;;;;;;;0.10;0.10;;;18.20;50.80;;;;;;5092714;28;20233;-58
2023/08/29 05:57:09;;;;;;;0.10;0.10;;;18.20;50.80;;;;;;5092679;28;20202;-57
2023/08/29 05:59:41;;;;;;;0.10;0.10;;;18.20;50.80;;;;;;5093481;28;20221;-58
2023/08/29 06:02:12;;;;;;;0.10;0.10;;;18.10;50.60;;;;;;5093400;28;20379;-58
2023/08/29 06:04:43;;;;;;;0.10;0.10;;;18.10;50.50;;;;;;5091951;28;20659;-59
2023/08/29 06:07:14;;;;;;;0.10;0.10;;;18.10;50.50;;;;;;5092391;28;20198;-58
2023/08/29 06:09:44;;;;;;;0.10;0.10;;;18.10;50.40;;;;;;5092764;28;20302;-60
2023/08/29 06:12:15;;;;;;;0.10;0.10;;;18.10;50.40;;;;;;5092938;28;20642;-60
2023/08/29 06:14:47;;;;;;;0.10;0.10;;;18.10;50.30;;;;;;5093662;28;20222;-61
2023/08/29 06:17:18;;;;;;;0.10;0.10;;;18.10;50.30;;;;;;5093424;28;20198;-60
2023/08/29 06:19:49;;;;;;;0.10;0.10;;;18.10;50.20;;;;;;5093094;28;20369;-60
2023/08/29 06:22:19;;;;;;;0.10;0.10;;;18.00;50.10;;;;;;5092687;28;20205;-60
2023/08/29 06:24:51;;;;;;;0.10;0.10;;;18.00;50.10;;;;;;5092762;28;20750;-61
2023/08/29 06:27:21;;;;;;;0.00;0.00;;;18.00;50.20;;;;;;5092866;28;20654;-61
2023/08/29 06:29:54;;;;;;;0.10;0.10;;;18.00;50.10;;;;;;5092299;28;20210;-61
2023/08/29 06:32:24;;;;;;;0.00;0.00;;;18.00;50.80;;;;;;5107214;28;20201;-61
2023/08/29 06:34:55;;;;;;;0.03;0.03;;;18.00;50.20;;;;;;5102262;28;20221;-60
2023/08/29 06:37:26;;;;;;;0.10;0.10;;;18.00;50.30;;;;;;5092347;28;20198;-60
2023/08/29 06:39:57;;;;;;;0.10;0.10;;;18.00;50.30;;;;;;5092045;28;20217;-60
2023/08/29 06:42:28;;;;;;;0.10;0.10;;;18.00;50.30;;;;;;5082096;28;20202;-60
2023/08/29 06:45:00;;;;;;;0.10;0.10;;;17.90;50.20;;;;;;5072164;28;20191;-60
2023/08/29 06:47:31;;;;;;;0.00;0.00;;;17.90;50.10;;;;;;5072022;28;20231;-60
2023/08/29 06:50:02;;;;;;;0.10;0.10;;;17.90;50.10;;;;;;5071656;28;20305;-60
2023/08/29 06:52:33;;;;;;;0.10;0.10;;;17.90;50.00;;;;;;5071118;28;20194;-60
2023/08/29 06:55:05;;;;;;;0.10;0.10;;;17.90;50.00;;;;;;5071402;28;20222;-60
2023/08/29 06:57:35;;;;;;;0.05;0.05;;;17.90;50.00;;;;;;5085193;28;21158;-60
2023/08/29 07:00:10;;;;;;;0.03;0.03;;;17.80;50.00;;;;;;5092151;28;20225;-60
2023/08/29 07:02:40;;;;;;;0.10;0.10;;;17.80;49.90;;;;;;5092042;28;20197;-61
2023/08/29 07:05:11;;;;;;;0.10;0.10;;;17.80;50.00;;;;;;5092048;28;20200;-61
2023/08/29 07:07:42;;;;;;;0.10;0.10;;;17.70;50.00;;;;;;5091225;28;20198;-60
2023/08/29 07:10:13;;;;;;;0.10;0.10;;;17.70;50.00;;;;;;5092044;28;20218;-60
2023/08/29 07:12:44;;;;;;;0.00;0.00;;;17.70;50.00;;;;;;5092010;28;20194;-61
2023/08/29 07:15:16;;;;;;;0.00;0.00;;;17.70;50.10;;;;;;5091982;28;20305;-61
2023/08/29 07:17:47;;;;;;;0.00;0.00;;;17.70;50.10;;;;;;5092178;28;20591;-60
2023/08/29 07:20:18;;;;;;;0.10;0.10;;;17.70;50.10;;;;;;5091550;28;20210;-61
2023/08/29 07:22:48;;;;;;;0.10;0.10;;;17.70;50.10;;;;;;5090987;28;20282;-61
2023/08/29 07:25:21;;;;;;;0.10;0.10;;;17.60;50.00;;;;;;5091915;28;20255;-61
2023/08/29 07:27:52;;;;;;;0.10;0.10;;;17.60;50.00;;;;;;5091667;28;20241;-60
2023/08/29 07:30:25;;;;;;;0.10;0.10;;;17.60;50.10;;;;;;5091372;28;20288;-60
2023/08/29 07:32:56;;;;;;;0.10;0.10;;;17.60;50.00;;;;;;5091460;28;20209;-61
2023/08/29 07:35:27;;;;;;;0.10;0.10;;;17.60;50.10;;;;;;5091708;28;20232;-60
2023/08/29 07:37:57;;;;;;;0.17;0.17;;;17.50;50.00;;;;;;5090903;28;20194;-60
2023/08/29 07:40:28;;;;;;;0.10;0.10;;;17.50;50.00;;;;;;5091648;28;20809;-60
2023/08/29 07:42:58;;;;;;;0.05;0.05;;;17.50;50.00;;;;;;5091595;28;20205;-61
2023/08/29 07:45:31;;;;;;;0.08;0.08;;;17.50;50.00;;;;;;5091644;28;20212;-61
2023/08/29 07:48:02;;;;;;;0.00;0.00;;;17.40;49.90;;;;;;5091545;28;20269;-61
2023/08/29 07:50:33;;;;;;;0.10;0.10;;;17.40;49.90;;;;;;5091337;28;20214;-61
2023/08/29 07:53:03;;;;;;;0.00;0.00;;;17.40;50.00;;;;;;5090862;28;20194;-61
2023/08/29 07:55:34;;;;;;;0.10;0.10;;;17.40;50.00;;;;;;5091124;28;20229;-60
2023/08/29 07:58:07;;;;;;;0.00;0.00;;;17.40;50.00;;;;;;5091013;28;20194;-61
2023/08/29 08:00:40;;;;;;;0.10;0.10;;;17.30;50.00;;;;;;5091044;28;20583;-61
2023/08/29 08:03:10;;;;;;;0.10;0.10;;;17.30;50.00;;;;;;5091570;28;20206;-62
2023/08/29 08:05:41;;;;;;;0.10;0.10;;;17.30;50.00;;;;;;5077261;28;20198;-60
2023/08/29 08:08:11;;;;;;;0.10;0.10;;;17.30;50.00;;;;;;5074421;28;20207;-61
2023/08/29 08:10:42;;;;;;;0.10;0.10;;;17.30;50.00;;;;;;5074914;28;20214;-60
2023/08/29 08:13:13;;;;;;;0.10;0.10;;;17.20;49.90;;;;;;5074839;28;20198;-60
2023/08/29 08:15:45;;;;;;;0.08;0.08;;;17.20;49.90;;;;;;5074480;28;20229;-61
2023/08/29 08:18:16;;;;;;;0.10;0.10;;;17.20;49.90;;;;;;5074645;28;20297;-62
2023/08/29 08:20:46;;;;;;;0.10;0.10;;;17.20;49.90;;;;;;5074624;28;20229;-61
2023/08/29 08:23:17;;;;;;;0.10;0.10;;;17.20;49.90;;;;;;5073873;28;20348;-60
2023/08/29 08:25:48;;;;;;;0.10;0.10;;;17.10;49.90;;;;;;5090738;28;20202;-60
2023/08/29 08:28:18;;;;;;;0.00;0.00;;;17.10;49.90;;;;;;5095629;28;20220;-60
2023/08/29 08:30:51;;;;;;;0.10;0.10;;;17.10;49.90;;;;;;5095331;28;20201;-60
2023/08/29 08:33:21;;;;;;;0.10;0.10;;;17.10;50.10;;;;;;5094875;28;20602;-60
2023/08/29 08:35:52;;;;;;;0.10;0.10;;;17.10;50.20;;;;;;5094633;28;20271;-60
2023/08/29 08:38:23;;;;;;;0.10;0.10;;;17.10;50.20;;;;;;5110690;28;20217;-60
2023/08/29 08:40:57;;;;;;;0.10;0.10;;;17.10;50.20;;;;;;5115138;28;20201;-60
2023/08/29 08:43:28;;;;;;;0.03;0.03;;;17.00;50.10;;;;;;5115187;28;20197;-61
2023/08/29 08:46:02;;;;;;;0.10;0.10;;;17.00;50.20;;;;;;5115020;28;20647;-60
2023/08/29 08:48:33;;;;;;;0.10;0.10;;;17.00;50.20;;;;;;5115501;28;20645;-60
2023/08/29 08:51:04;;;;;;;0.05;0.05;;;17.00;50.20;;;;;;5115303;28;20197;-60
2023/08/29 08:53:35;;;;;;;0.00;0.00;;;17.00;50.10;;;;;;5114116;28;20233;-60
2023/08/29 08:56:06;;;;;;;0.10;0.10;;;17.00;50.10;;;;;;5107918;28;20245;-60
2023/08/29 08:58:38;;;;;;;0.15;0.15;;;17.00;50.20;;;;;;5094622;28;20202;-60
2023/08/29 09:01:10;;;;;;;0.10;0.10;;;16.90;50.10;;;;;;5094564;28;20198;-60
2023/08/29 09:03:41;;;;;;;0.00;0.00;;;16.90;50.20;;;;;;5094397;28;20219;-60
2023/08/29 09:06:16;;;;;;;0.10;0.10;;;16.90;50.10;;;;;;5094221;28;20198;-59
2023/08/29 09:08:47;;;;;;;0.10;0.10;;;16.90;50.10;;;;;;5093618;28;20214;-60
2023/08/29 09:11:21;;;;;;;0.00;0.00;;;16.80;50.10;;;;;;5094110;28;20194;-60
2023/08/29 09:13:51;;;;;;;0.00;0.00;;;16.80;50.10;;;;;;5094508;28;20190;-60
2023/08/29 09:16:24;;;;;;;0.10;0.10;;;16.80;50.20;;;;;;5093477;28;20225;-60
2023/08/29 09:18:55;;;;;;;0.10;0.10;;;16.80;50.20;;;;;;5093703;28;20624;-60
2023/08/29 09:21:27;;;;;;;0.10;0.10;;;16.80;50.20;;;;;;5093307;28;20559;-60
2023/08/29 09:23:57;;;;;;;0.10;0.10;;;16.80;50.30;;;;;;5093860;28;20251;-60
2023/08/29 09:26:34;;;;;;;0.10;0.10;;;16.70;50.20;;;;;;5093690;28;20210;-61
2023/08/29 09:29:19;;;;;;;0.10;0.10;;;16.70;50.30;;;;;;5093506;28;20260;-60
2023/08/29 09:31:52;;;;;;;0.10;0.10;;;16.70;50.30;;;;;;5086728;28;20198;-60
2023/08/29 09:34:33;;;;;;;0.10;0.10;;;16.70;50.30;;;;;;5073715;28;20564;-60
2023/08/29 09:37:07;;;;;;;0.10;0.10;;;16.60;50.20;;;;;;5073527;28;20194;-60
2023/08/29 09:39:37;;;;;;;0.10;0.10;;;16.60;50.20;;;;;;5072979;28;20223;-60
2023/08/29 09:42:09;;;;;;;0.10;0.10;;;16.60;50.20;;;;;;5073394;28;20658;-60
2023/08/29 09:44:41;;;;;;;0.10;0.10;;;16.60;50.30;;;;;;5073246;28;20195;-60
2023/08/29 09:47:13;;;;;;;0.10;0.10;;;16.60;50.30;;;;;;5073045;28;20194;-60
2023/08/29 09:49:46;;;;;;;0.10;0.10;;;16.60;50.30;;;;;;5073433;28;20215;-60
2023/08/29 09:52:17;;;;;;;0.10;0.10;;;16.60;50.30;;;;;;5073283;28;20677;-60
2023/08/29 09:54:50;;;;;;;0.10;0.10;;;16.50;50.30;;;;;;5073181;28;20559;-60
2023/08/29 09:57:22;;;;;;;0.10;0.10;;;16.50;50.30;;;;;;5084363;28;20194;-60
2023/08/29 09:59:57;;;;;;;0.10;0.10;;;16.50;50.30;;;;;;5093427;28;20218;-60
2023/08/29 10:02:33;;;;;;;0.10;0.10;;;16.50;50.40;;;;;;5092959;28;20197;-60
2023/08/29 10:05:08;;;;;;;0.10;0.10;;;16.40;50.30;;;;;;5092596;28;20202;-60
2023/08/29 10:07:44;;;;;;;0.10;0.10;;;16.40;50.30;;;;;;5091103;28;20262;-60
2023/08/29 10:10:15;;;;;;;0.17;0.17;;;16.40;50.40;;;;;;5092363;28;20244;-60
2023/08/29 10:15:39;;;;;;;0.10;0.10;;;16.40;50.40;;;;;;5092265;28;20700;-60
2023/08/29 10:18:13;;;;;;;0.10;0.10;;;16.40;50.40;;;;;;5092445;28;20190;-60
2023/08/29 10:20:46;;;;;;;0.10;0.10;;;16.40;51.00;;;;;;5092578;28;20256;-60
2023/08/29 10:23:17;;;;;;;0.00;0.00;;;16.30;50.40;;;;;;5100608;28;20189;-60
2023/08/29 10:25:49;;;;;;;0.10;0.10;;;16.30;50.40;;;;;;5112900;28;20244;-60
2023/08/29 10:28:21;;;;;;;0.10;0.10;;;16.30;50.40;;;;;;5092459;28;20202;-60
2023/08/29 10:30:54;;;;;;;0.10;0.10;;;16.30;50.50;;;;;;5092377;28;20205;-60
2023/08/29 10:33:27;;;;;;;0.10;0.10;;;16.20;50.40;;;;;;5092434;28;20557;-60
2023/08/29 10:35:58;;;;;;;0.10;0.10;;;16.20;50.40;;;;;;5092497;28;20641;-60
2023/08/29 10:38:29;;;;;;;0.10;0.10;;;16.20;50.40;;;;;;5092943;28;20226;-60
2023/08/29 10:41:10;;;;;;;0.10;0.10;;;16.20;50.40;;;;;;5092687;28;20202;-60
2023/08/29 10:43:41;;;;;;;0.10;0.10;;;16.10;50.40;;;;;;5092923;28;20593;-60
2023/08/29 10:46:19;;;;;;;0.10;0.10;;;16.10;50.40;;;;;;5092171;28;20259;-60
2023/08/29 10:48:55;;;;;;;0.17;0.17;;;16.20;50.50;;;;;;5094413;28;20216;-60
2023/08/29 10:51:27;;;;;;;0.05;0.05;;;16.10;50.50;;;;;;5092077;28;20198;-60
2023/08/29 10:54:05;;;;;;;0.00;0.00;;;16.10;50.50;;;;;;5092350;28;20468;-60
2023/08/29 10:56:43;;;;;;;0.10;0.10;;;16.10;50.50;;;;;;5091747;28;20265;-60
2023/08/29 10:59:32;;;;;;;0.05;0.05;;;16.00;50.50;;;;;;5092429;28;20583;-60
2023/08/29 11:02:29;;;;;;;0.10;0.10;;;16.00;50.50;;;;;;5092654;28;20186;-60
2023/08/29 11:05:19;;;;;;;0.10;0.10;;;16.00;50.50;;;;;;5046207;28;20554;-60
2023/08/29 11:07:50;;;;;;;0.10;0.10;;;16.00;50.50;;;;;;5091969;28;20198;-60
2023/08/29 11:10:22;;;;;;;0.10;0.10;;;16.00;50.50;;;;;;5091774;28;20217;-59
2023/08/29 11:13:10;;;;;;;0.10;0.10;;;15.90;50.40;;;;;;5092003;28;20582;-60
2023/08/29 11:16:18;;;;;;;0.10;0.10;;;15.90;50.50;;;;;;5091989;28;20309;-60
2023/08/29 11:18:49;;;;;;;0.10;0.10;;;15.90;50.50;;;;;;5091903;28;20220;-60
2023/08/29 11:21:22;;;;;;;0.03;0.03;;;15.90;50.50;;;;;;5091716;28;20194;-60
2023/08/29 11:23:53;;;;;;;0.08;0.08;;;15.80;50.50;;;;;;5091622;28;20198;-60
2023/08/29 11:26:25;;;;;;;0.10;0.10;;;15.80;50.50;;;;;;5091889;28;20209;-60
2023/08/29 11:28:57;;;;;;;0.08;0.08;;;15.80;50.60;;;;;;5091841;28;20218;-59
2023/08/29 11:31:27;;;;;;;0.10;0.10;;;15.80;50.50;;;;;;5091681;28;20202;-60
2023/08/29 11:33:58;;;;;;;0.10;0.10;;;15.70;50.60;;;;;;5091806;28;20530;-60
2023/08/29 11:36:36;;;;;;;0.10;0.10;;;15.70;50.50;;;;;;5091701;28;20233;-59
2023/08/29 11:39:08;;;;;;;0.10;0.10;;;15.70;50.60;;;;;;5091534;28;20220;-60
2023/08/29 11:41:38;;;;;;;0.10;0.10;;;15.70;50.60;;;;;;5091887;28;20225;-60
2023/08/29 11:44:09;;;;;;;0.10;0.10;;;15.70;50.50;;;;;;5091886;28;20209;-60
2023/08/29 11:46:40;;;;;;;0.10;0.10;;;15.70;50.60;;;;;;5091538;28;20668;-60
2023/08/29 11:49:19;;;;;;;0.10;0.10;;;15.60;50.50;;;;;;5091379;28;20210;-60
2023/08/29 11:51:53;;;;;;;0.10;0.10;;;15.60;50.50;;;;;;5091803;28;20272;-59
2023/08/29 11:54:41;;;;;;;0.00;0.00;;;15.60;50.50;;;;;;5091703;28;20672;-60
2023/08/29 11:57:14;;;;;;;0.10;0.10;;;15.60;50.50;;;;;;5090464;28;20309;-60
2023/08/29 11:59:45;;;;;;;0.10;0.10;;;15.60;50.50;;;;;;5091441;28;20732;-60
2023/08/29 12:02:17;;;;;;;0.10;0.10;;;15.50;50.50;;;;;;5092063;28;20216;-59
2023/08/29 12:04:48;;;;;;;0.10;0.10;;;15.50;50.50;;;;;;5091287;28;20541;-60
2023/08/29 12:07:21;;;;;;;0.10;0.10;;;15.50;50.60;;;;;;5091329;28;20259;-60
2023/08/29 12:09:54;;;;;;;0.10;0.10;;;15.50;50.60;;;;;;5090903;28;20222;-60
2023/08/29 12:12:35;;;;;;;0.03;0.03;;;15.50;50.60;;;;;;5091141;28;20202;-59
2023/08/29 12:15:10;;;;;;;0.10;0.10;;;15.50;50.60;;;;;;5091305;28;20198;-59
2023/08/29 12:17:41;;;;;;;0.10;0.10;;;15.40;50.60;;;;;;5091300;28;20221;-60
2023/08/29 12:20:31;;;;;;;0.10;0.10;;;15.40;50.60;;;;;;5091201;28;20336;-59
2023/08/29 12:23:03;;;;;;;0.10;0.10;;;15.40;50.60;;;;;;5097236;28;20193;-59
2023/08/29 12:25:34;;;;;;;0.10;0.10;;;15.40;50.60;;;;;;5111295;28;20677;-60
2023/08/29 12:28:05;;;;;;;0.10;0.10;;;15.40;50.60;;;;;;5094038;28;20570;-59
2023/08/29 12:30:36;;;;;;;0.10;0.10;;;15.30;50.60;;;;;;5091299;28;20709;-60
2023/08/29 12:33:08;;;;;;;0.10;0.10;;;15.30;50.60;;;;;;5091259;28;20285;-59
2023/08/29 12:35:39;;;;;;;0.10;0.10;;;15.30;50.60;;;;;;5091125;28;20198;-60
2023/08/29 12:38:12;;;;;;;0.10;0.10;;;15.30;50.70;;;;;;5091084;28;20484;-59
2023/08/29 12:40:43;;;;;;;0.10;0.10;;;15.30;50.70;;;;;;5090874;28;20217;-60
2023/08/29 12:43:16;;;;;;;0.10;0.10;;;15.20;50.70;;;;;;5091608;28;20201;-59
2023/08/29 12:45:47;;;;;;;0.00;0.00;;;15.20;50.70;;;;;;5091356;28;20202;-59
2023/08/29 12:48:20;;;;;;;0.10;0.10;;;15.20;50.70;;;;;;5090836;28;20672;-59
2023/08/29 12:50:51;;;;;;;0.10;0.10;;;15.20;50.70;;;;;;5092355;28;20290;-59
2023/08/29 12:53:24;;;;;;;0.10;0.10;;;15.20;50.70;;;;;;5094872;28;20604;-59
2023/08/29 12:55:54;;;;;;;0.10;0.10;;;15.20;50.70;;;;;;5094454;28;20701;-59
2023/08/29 12:58:25;;;;;;;0.10;0.10;;;15.20;50.70;;;;;;5094288;28;20194;-59
2023/08/29 13:00:56;;;;;;;0.10;0.10;;;15.10;50.70;;;;;;5094428;28;20201;-59
2023/08/29 13:03:26;;;;;;;0.10;0.10;;;15.10;50.70;;;;;;5095025;28;20202;-59
2023/08/29 13:05:57;;;;;;;0.10;0.10;;;15.10;50.70;;;;;;5094635;28;20646;-59
2023/08/29 13:08:29;;;;;;;0.10;0.10;;;15.10;50.70;;;;;;5094711;28;20190;-59
2023/08/29 13:11:00;;;;;;;0.10;0.10;;;15.10;50.80;;;;;;5094646;28;20240;-59
2023/08/29 13:13:31;;;;;;;0.10;0.10;;;15.10;50.80;;;;;;5094067;28;20202;-60
2023/08/29 13:16:01;;;;;;;0.10;0.10;;;15.00;50.70;;;;;;5094091;28;20263;-59